Time;durP1;ratioP1;P1;durP2;ratioP2;P2;SDS_P1;SDS_P2;PMS_P1;PMS_P2;Temp;Humidity;BMP_temperature;BMP_pressure;BME280_temperature;BME280_humidity;BME280_pressure;Samples;Min_cycle;Max_cycle;Signal;HPM_P1;HPM_P2
2022/05/22 00:00:26;;;;;;;;;;;;;;;10.76;100.00;96072.28;1035735;28;19909;-73
2022/05/22 00:00:56;;;;;;;;;;;;;;;10.74;100.00;96071.78;1035962;28;20000;-73
2022/05/22 00:01:26;;;;;;;;;;;;;;;10.67;100.00;96068.59;1035698;28;20410;-73
2022/05/22 00:01:57;;;;;;;;;;;;;;;10.67;100.00;96073.84;1035873;28;19982;-73
2022/05/22 00:02:27;;;;;;;;;;;;;;;10.65;100.00;96070.66;1031573;28;19914;-73
2022/05/22 00:02:57;;;;;;;;;;;;;;;10.60;100.00;96074.84;1027673;28;19992;-73
2022/05/22 00:03:28;;;;;;;;;;;;;;;10.57;100.00;96080.59;1031890;28;19953;-74
2022/05/22 00:04:01;;;;;;;;;;;;;;;10.52;100.00;96072.69;1032697;28;19906;-73
2022/05/22 00:04:31;;;;;;;;;;;;;;;10.52;100.00;96071.91;1036032;28;19912;-74
2022/05/22 00:05:02;;;;;;;;;;;;;;;10.52;100.00;96066.66;1032303;28;20017;-74
2022/05/22 00:05:32;;;;;;;;;;;;;;;10.49;100.00;96077.66;1031693;28;20706;-73
2022/05/22 00:06:02;;;;;;;;;;;;;;;10.48;100.00;96076.09;1031830;28;19913;-73
2022/05/22 00:06:34;;;;;;;;;;;;;;;10.47;100.00;96074.50;1029769;28;19914;-73
2022/05/22 00:07:05;;;;;;;;;;;;;;;10.48;100.00;96071.63;1031703;28;19914;-73
2022/05/22 00:07:36;;;;;;;;;;;;;;;10.49;100.00;96073.19;1027707;28;19917;-73
2022/05/22 00:08:06;;;;;;;;;;;;;;;10.51;100.00;96070.31;1027616;28;19914;-73
2022/05/22 00:08:39;;;;;;;;;;;;;;;10.51;100.00;96071.13;1024234;28;19992;-74
2022/05/22 00:09:10;;;;;;;;;;;;;;;10.50;100.00;96074.78;1028214;28;19917;-73
2022/05/22 00:09:40;;;;;;;;;;;;;;;10.50;100.00;96066.91;1027489;28;19925;-73
2022/05/22 00:10:10;;;;;;;;;;;;;;;10.48;100.00;96070.84;1035549;28;19921;-73
2022/05/22 00:10:41;;;;;;;;;;;;;;;10.43;100.00;96063.72;1035612;28;20457;-74
2022/05/22 00:11:11;;;;;;;;;;;;;;;10.41;100.00;96068.44;1035810;28;19918;-73
2022/05/22 00:11:41;;;;;;;;;;;;;;;10.37;100.00;96064.75;1039819;28;19921;-74
2022/05/22 00:12:11;;;;;;;;;;;;;;;10.34;100.00;96065.25;1039849;28;19917;-73
2022/05/22 00:12:42;;;;;;;;;;;;;;;10.32;100.00;96064.69;1035454;28;20430;-73
2022/05/22 00:13:12;;;;;;;;;;;;;;;10.31;100.00;96061.28;1035546;28;19933;-73
2022/05/22 00:13:43;;;;;;;;;;;;;;;10.27;100.00;96067.28;1035800;28;19922;-73
2022/05/22 00:14:13;;;;;;;;;;;;;;;10.29;100.00;96062.56;1027819;28;19918;-74
2022/05/22 00:14:43;;;;;;;;;;;;;;;10.26;100.00;96066.50;1035781;28;20369;-75
2022/05/22 00:15:14;;;;;;;;;;;;;;;10.26;100.00;96068.31;1031464;28;20367;-73
2022/05/22 00:16:36;;;;;;;;;;;;;;;10.20;100.00;96069.31;1035922;28;20441;-75
2022/05/22 00:17:08;;;;;;;;;;;;;;;10.19;100.00;96062.47;1036919;28;19932;-73
2022/05/22 00:17:38;;;;;;;;;;;;;;;10.17;100.00;96060.13;1037917;28;20583;-74
2022/05/22 00:18:08;;;;;;;;;;;;;;;10.15;100.00;96068.22;1039396;28;19921;-72
2022/05/22 00:18:39;;;;;;;;;;;;;;;10.17;100.00;96059.31;1040617;28;19917;-74
2022/05/22 00:19:10;;;;;;;;;;;;;;;10.13;100.00;96051.97;1035406;28;19956;-73
2022/05/22 00:19:41;;;;;;;;;;;;;;;10.14;100.00;96055.38;1027105;28;19965;-74
2022/05/22 00:20:12;;;;;;;;;;;;;;;10.15;100.00;96054.31;1027264;28;20487;-73
2022/05/22 00:20:42;;;;;;;;;;;;;;;10.14;100.00;96055.38;1024015;28;19919;-74
2022/05/22 00:21:13;;;;;;;;;;;;;;;10.20;100.00;96053.59;1035496;28;20342;-73
2022/05/22 00:21:43;;;;;;;;;;;;;;;10.21;100.00;96049.91;1038799;28;19921;-73
2022/05/22 00:22:13;;;;;;;;;;;;;;;10.25;100.00;96051.75;1035397;28;20008;-73
2022/05/22 00:22:44;;;;;;;;;;;;;;;10.29;100.00;96047.63;1035924;28;19924;-73
2022/05/22 00:23:14;;;;;;;;;;;;;;;10.34;100.00;96050.28;1033868;28;19952;-73
2022/05/22 00:23:44;;;;;;;;;;;;;;;10.41;100.00;96050.06;1040396;28;19931;-73
2022/05/22 00:24:15;;;;;;;;;;;;;;;10.43;100.00;96042.75;1035446;28;19917;-74
2022/05/22 00:24:45;;;;;;;;;;;;;;;10.47;100.00;96053.53;1027530;28;20343;-73
2022/05/22 00:25:16;;;;;;;;;;;;;;;10.49;100.00;96054.03;1027543;28;19922;-74
2022/05/22 00:25:46;;;;;;;;;;;;;;;10.46;100.00;96049.28;1023412;28;19961;-73
2022/05/22 00:26:17;;;;;;;;;;;;;;;10.43;100.00;96045.38;1023508;28;19920;-74
2022/05/22 00:26:47;;;;;;;;;;;;;;;10.43;100.00;96053.25;1031644;28;19918;-73
2022/05/22 00:27:17;;;;;;;;;;;;;;;10.41;100.00;96052.69;1027501;28;19969;-73
2022/05/22 00:27:47;;;;;;;;;;;;;;;10.42;100.00;96046.38;1029617;28;20013;-73
2022/05/22 00:28:18;;;;;;;;;;;;;;;10.45;100.00;96055.59;1026136;28;20375;-73
2022/05/22 00:28:48;;;;;;;;;;;;;;;10.44;100.00;96048.78;1027495;28;20048;-74
2022/05/22 00:29:18;;;;;;;;;;;;;;;10.43;100.00;96044.56;1027556;28;20017;-73
2022/05/22 00:29:49;;;;;;;;;;;;;;;10.45;100.00;96042.47;1030659;28;19926;-72
2022/05/22 00:30:19;;;;;;;;;;;;;;;10.46;100.00;96047.50;1039705;28;19928;-73
2022/05/22 00:30:49;;;;;;;;;;;;;;;10.48;100.00;96045.38;1043756;28;20379;-73
2022/05/22 00:31:20;;;;;;;;;;;;;;;10.47;100.00;96048.28;1040986;28;20410;-74
2022/05/22 00:31:50;;;;;;;;;;;;;;;10.50;100.00;96045.94;1038773;28;19928;-73
2022/05/22 00:32:20;;;;;;;;;;;;;;;10.53;100.00;96039.38;1035628;28;19924;-74
2022/05/22 00:32:51;;;;;;;;;;;;;;;10.54;100.00;96041.75;1035470;28;19921;-74
2022/05/22 00:33:21;;;;;;;;;;;;;;;10.54;100.00;96040.97;1031975;28;20331;-73
2022/05/22 00:33:51;;;;;;;;;;;;;;;10.51;100.00;96039.63;1031483;28;19941;-74
2022/05/22 00:34:22;;;;;;;;;;;;;;;10.54;100.00;96039.13;1035621;28;20303;-74
2022/05/22 00:34:52;;;;;;;;;;;;;;;10.53;100.00;96041.97;1031765;28;19964;-73
2022/05/22 00:35:22;;;;;;;;;;;;;;;10.55;100.00;96039.91;1035944;28;20527;-73
2022/05/22 00:35:53;;;;;;;;;;;;;;;10.56;100.00;96037.06;1035188;28;19953;-73
2022/05/22 00:36:23;;;;;;;;;;;;;;;10.54;100.00;96033.09;1032138;28;20143;-74
2022/05/22 00:36:53;;;;;;;;;;;;;;;10.54;100.00;96039.13;1035192;28;19921;-74
2022/05/22 00:37:23;;;;;;;;;;;;;;;10.53;100.00;96037.56;1036108;28;19926;-74
2022/05/22 00:37:54;;;;;;;;;;;;;;;10.52;100.00;96038.56;1035218;28;19922;-74
2022/05/22 00:38:24;;;;;;;;;;;;;;;10.50;100.00;96040.69;1035700;28;19906;-74
2022/05/22 00:38:54;;;;;;;;;;;;;;;10.48;100.00;96040.13;1036065;28;19917;-73
2022/05/22 00:39:25;;;;;;;;;;;;;;;10.48;100.00;96039.34;1033047;28;19972;-75
2022/05/22 00:39:55;;;;;;;;;;;;;;;10.45;100.00;96043.25;1033673;28;19922;-74
2022/05/22 00:40:25;;;;;;;;;;;;;;;10.42;100.00;96043.75;1039940;28;19932;-74
2022/05/22 00:40:56;;;;;;;;;;;;;;;10.41;100.00;96050.06;1042664;28;19920;-74
2022/05/22 00:41:26;;;;;;;;;;;;;;;10.41;100.00;96050.06;1038579;28;19929;-74
2022/05/22 00:41:59;;;;;;;;;;;;;;;10.43;100.00;96049.81;1039752;28;19938;-74
2022/05/22 00:42:30;;;;;;;;;;;;;;;10.41;100.00;96050.06;1039463;28;19960;-72
2022/05/22 00:43:00;;;;;;;;;;;;;;;10.41;100.00;96052.69;1035915;28;19917;-74
2022/05/22 00:43:31;;;;;;;;;;;;;;;10.41;100.00;96049.28;1039394;28;19913;-74
2022/05/22 00:44:05;;;;;;;;;;;;;;;10.42;100.00;96051.63;1043703;28;19920;-75
2022/05/22 00:44:35;;;;;;;;;;;;;;;10.42;100.00;96050.84;1040944;28;19972;-74
2022/05/22 00:45:08;;;;;;;;;;;;;;;10.42;100.00;96048.22;1035822;28;19976;-74
2022/05/22 00:45:39;;;;;;;;;;;;;;;10.42;100.00;96050.84;1036047;28;19917;-74
2022/05/22 00:46:11;;;;;;;;;;;;;;;10.42;100.00;96051.63;1034512;28;20359;-73
2022/05/22 00:46:41;;;;;;;;;;;;;;;10.45;100.00;96050.34;1036155;28;20008;-74
2022/05/22 00:47:11;;;;;;;;;;;;;;;10.44;100.00;96054.03;1040071;28;19977;-74
2022/05/22 00:47:42;;;;;;;;;;;;;;;10.46;100.00;96046.66;1038932;28;19928;-74
2022/05/22 00:48:12;;;;;;;;;;;;;;;10.44;100.00;96046.94;1031396;28;20016;-73
2022/05/22 00:48:43;;;;;;;;;;;;;;;10.46;100.00;96050.13;1036080;28;19925;-74
2022/05/22 00:49:22;;;;;;;;;;;;;;;10.46;100.00;96047.50;1031497;28;20420;-73
2022/05/22 00:49:53;;;;;;;;;;;;;;;10.48;100.00;96049.84;1031855;28;20353;-74
2022/05/22 00:50:23;;;;;;;;;;;;;;;10.48;100.00;96050.63;1035426;28;20021;-74
2022/05/22 00:50:55;;;;;;;;;;;;;;;10.48;100.00;96045.38;1039546;28;20386;-73
2022/05/22 00:51:31;;;;;;;;;;;;;;;10.49;100.00;96046.94;1035623;28;19928;-74
2022/05/22 00:52:04;;;;;;;;;;;;;;;10.49;100.00;96041.72;1035637;28;19960;-74
2022/05/22 00:52:44;;;;;;;;;;;;;;;10.51;100.00;96041.47;1036862;28;20322;-73
2022/05/22 00:53:14;;;;;;;;;;;;;;;10.52;100.00;96046.44;1040022;28;20049;-73
2022/05/22 00:53:45;;;;;;;;;;;;;;;10.51;100.00;96039.63;1039489;28;19985;-74
2022/05/22 00:54:17;;;;;;;;;;;;;;;10.53;100.00;96050.66;1039809;28;19914;-74
2022/05/22 00:54:47;;;;;;;;;;;;;;;10.53;100.00;96042.81;1039305;28;20375;-73
2022/05/22 00:55:19;;;;;;;;;;;;;;;10.52;100.00;96043.81;1040647;28;19909;-74
2022/05/22 00:55:49;;;;;;;;;;;;;;;10.53;100.00;96048.03;1047738;28;19983;-73
2022/05/22 00:56:21;;;;;;;;;;;;;;;10.51;100.00;96042.25;1041770;28;19991;-74
2022/05/22 00:57:01;;;;;;;;;;;;;;;10.53;100.00;96044.59;1039009;28;19909;-74
2022/05/22 00:57:35;;;;;;;;;;;;;;;10.53;100.00;96048.03;1035339;28;20008;-74
2022/05/22 00:58:07;;;;;;;;;;;;;;;10.53;100.00;96047.22;1035410;28;19913;-74
2022/05/22 00:58:37;;;;;;;;;;;;;;;10.54;100.00;96047.00;1027258;28;19910;-74
2022/05/22 00:59:08;;;;;;;;;;;;;;;10.55;100.00;96053.03;1029141;28;20471;-73
2022/05/22 00:59:43;;;;;;;;;;;;;;;10.55;100.00;96048.56;1031917;28;20199;-74
2022/05/22 01:00:17;;;;;;;;;;;;;;;10.56;100.00;96051.97;1029513;28;19910;-73
2022/05/22 01:00:48;;;;;;;;;;;;;;;10.55;100.00;96051.19;1038902;28;20469;-74
2022/05/22 01:01:18;;;;;;;;;;;;;;;10.56;100.00;96050.16;1026894;28;19956;-74
2022/05/22 01:01:49;;;;;;;;;;;;;;;10.55;100.00;96059.06;1022921;29;19906;-73
2022/05/22 01:02:19;;;;;;;;;;;;;;;10.57;100.00;96056.19;1024287;28;19946;-75
2022/05/22 01:03:41;;;;;;;;;;;;;;;10.58;100.00;96050.69;1037927;28;19996;-73
2022/05/22 01:04:14;;;;;;;;;;;;;;;10.59;100.00;96057.50;1041007;28;20370;-73
2022/05/22 01:04:44;;;;;;;;;;;;;;;10.60;100.00;96058.31;1034473;28;19913;-74
2022/05/22 01:05:15;;;;;;;;;;;;;;;10.60;100.00;96058.31;1034146;28;19941;-74
2022/05/22 01:05:46;;;;;;;;;;;;;;;10.60;100.00;96061.72;1035465;28;19997;-75
2022/05/22 01:06:19;;;;;;;;;;;;;;;10.62;100.00;96061.47;1031603;28;19902;-74
2022/05/22 01:06:56;;;;;;;;;;;;;;;10.62;100.00;96064.88;1024553;28;20388;-74
2022/05/22 01:07:26;;;;;;;;;;;;;;;10.63;100.00;96063.06;1031507;28;20121;-74
2022/05/22 01:07:57;;;;;;;;;;;;;;;10.64;100.00;96059.38;1035461;28;19914;-74
2022/05/22 01:08:27;;;;;;;;;;;;;;;10.66;100.00;96064.38;1032223;28;19913;-74
2022/05/22 01:08:58;;;;;;;;;;;;;;;10.67;100.00;96060.72;1035334;28;19909;-74
2022/05/22 01:09:28;;;;;;;;;;;;;;;10.70;100.00;96061.00;1031214;28;20379;-75
2022/05/22 01:09:58;;;;;;;;;;;;;;;10.72;100.00;96055.47;1026728;28;20032;-73
2022/05/22 01:10:29;;;;;;;;;;;;;;;10.74;100.00;96061.28;1027528;28;19910;-73
2022/05/22 01:11:02;;;;;;;;;;;;;;;10.76;100.00;96057.31;1027527;28;20311;-74
2022/05/22 01:11:33;;;;;;;;;;;;;;;10.77;100.00;96056.31;1023626;28;20511;-74
2022/05/22 01:12:08;;;;;;;;;;;;;;;10.78;100.00;96055.25;1020099;29;19911;-73
2022/05/22 01:12:39;;;;;;;;;;;;;;;10.80;100.00;96052.38;1023370;29;19915;-73
2022/05/22 01:13:09;;;;;;;;;;;;;;;10.80;100.00;96060.25;1031414;28;20477;-73
2022/05/22 01:13:41;;;;;;;;;;;;;;;10.81;100.00;96065.25;1031420;28;19910;-73
2022/05/22 01:14:13;;;;;;;;;;;;;;;10.81;100.00;96060.00;1031566;28;19949;-73
2022/05/22 01:14:43;;;;;;;;;;;;;;;10.82;100.00;96061.56;1031973;28;20284;-74
2022/05/22 01:15:13;;;;;;;;;;;;;;;10.82;100.00;96063.41;1035083;28;19941;-74
2022/05/22 01:15:44;;;;;;;;;;;;;;;10.83;100.00;96062.34;1034035;28;20089;-74
2022/05/22 01:16:14;;;;;;;;;;;;;;;10.82;100.00;96056.31;1031287;28;19964;-74
2022/05/22 01:16:44;;;;;;;;;;;;;;;10.83;100.00;96063.16;1041535;28;19913;-73
2022/05/22 01:17:15;;;;;;;;;;;;;;;10.84;100.00;96056.84;1033785;28;20485;-74
2022/05/22 01:17:46;;;;;;;;;;;;;;;10.85;100.00;96052.38;1037973;28;19917;-74
2022/05/22 01:18:16;;;;;;;;;;;;;;;10.87;100.00;96049.53;1034828;28;19921;-73
2022/05/22 01:18:51;;;;;;;;;;;;;;;10.88;100.00;96051.09;1035356;28;19920;-73
2022/05/22 01:19:21;;;;;;;;;;;;;;;10.89;100.00;96050.81;1040182;28;20413;-73
2022/05/22 01:19:58;;;;;;;;;;;;;;;10.88;100.00;96049.25;1034675;28;19962;-73
2022/05/22 01:20:28;;;;;;;;;;;;;;;10.89;100.00;96044.78;1031770;28;19917;-73
2022/05/22 01:20:59;;;;;;;;;;;;;;;10.85;100.00;96045.31;1031284;28;19917;-74
2022/05/22 01:21:30;;;;;;;;;;;;;;;10.85;100.00;96047.13;1031991;28;19922;-73
2022/05/22 01:22:04;;;;;;;;;;;;;;;10.84;100.00;96046.34;1028223;28;20020;-73
2022/05/22 01:22:35;;;;;;;;;;;;;;;10.84;100.00;96042.94;1032392;28;20028;-74
2022/05/22 01:23:05;;;;;;;;;;;;;;;10.85;100.00;96040.06;1033947;28;19921;-73
2022/05/22 01:23:36;;;;;;;;;;;;;;;10.81;100.00;96038.22;1032466;28;20371;-74
2022/05/22 01:24:07;;;;;;;;;;;;;;;10.80;100.00;96042.66;1027300;28;20443;-74
2022/05/22 01:24:37;;;;;;;;;;;;;;;10.80;100.00;96041.88;1031291;28;19918;-74
2022/05/22 01:25:08;;;;;;;;;;;;;;;10.79;100.00;96040.28;1034349;28;19917;-74
2022/05/22 01:25:38;;;;;;;;;;;;;;;10.77;100.00;96037.94;1039650;28;19964;-74
2022/05/22 01:26:09;;;;;;;;;;;;;;;10.77;100.00;96034.53;1039458;28;19983;-73
2022/05/22 01:26:39;;;;;;;;;;;;;;;10.78;100.00;96036.09;1035613;28;19914;-74
2022/05/22 01:27:10;;;;;;;;;;;;;;;10.80;100.00;96036.63;1031406;28;20399;-74
2022/05/22 01:27:41;;;;;;;;;;;;;;;10.79;100.00;96030.56;1031373;28;20370;-73
2022/05/22 01:28:12;;;;;;;;;;;;;;;10.78;100.00;96029.00;1035277;28;19929;-73
2022/05/22 01:28:42;;;;;;;;;;;;;;;10.80;100.00;96031.38;1031742;28;20427;-74
2022/05/22 01:29:13;;;;;;;;;;;;;;;10.80;100.00;96029.53;1027343;28;19918;-73
2022/05/22 01:29:43;;;;;;;;;;;;;;;10.80;100.00;96026.13;1030764;28;19933;-73
2022/05/22 01:30:16;;;;;;;;;;;;;;;10.81;100.00;96031.13;1031166;28;20265;-75
2022/05/22 01:30:46;;;;;;;;;;;;;;;10.81;100.00;96030.31;1030332;28;19922;-73
2022/05/22 01:31:17;;;;;;;;;;;;;;;10.80;100.00;96026.13;1028733;28;20179;-73
2022/05/22 01:31:47;;;;;;;;;;;;;;;10.80;100.00;96031.38;1030175;28;20466;-73
2022/05/22 01:32:17;;;;;;;;;;;;;;;10.80;100.00;96028.75;1031427;28;19921;-73
2022/05/22 01:32:47;;;;;;;;;;;;;;;10.80;100.00;96028.75;1034096;28;19925;-73
2022/05/22 01:33:18;;;;;;;;;;;;;;;10.79;100.00;96024.53;1039550;28;20298;-74
2022/05/22 01:33:49;;;;;;;;;;;;;;;10.74;100.00;96030.56;1035372;28;19964;-73
2022/05/22 01:34:19;;;;;;;;;;;;;;;10.71;100.00;96032.91;1033496;28;19916;-74
2022/05/22 01:34:49;;;;;;;;;;;;;;;10.70;100.00;96033.97;1031322;28;20430;-73
2022/05/22 01:35:23;;;;;;;;;;;;;;;10.65;100.00;96033.94;1033622;28;19957;-73
2022/05/22 01:35:53;;;;;;;;;;;;;;;10.60;100.00;96029.44;1031086;28;19961;-73
2022/05/22 01:36:24;;;;;;;;;;;;;;;10.58;100.00;96029.69;1032130;28;19928;-74
2022/05/22 01:36:54;;;;;;;;;;;;;;;10.56;100.00;96025.75;1031151;28;19917;-73
2022/05/22 01:37:24;;;;;;;;;;;;;;;10.54;100.00;96031.25;1031236;28;19914;-74
2022/05/22 01:37:57;;;;;;;;;;;;;;;10.53;100.00;96029.69;1031570;28;20210;-73
2022/05/22 01:38:28;;;;;;;;;;;;;;;10.51;100.00;96031.75;1035533;28;19921;-74
2022/05/22 01:38:58;;;;;;;;;;;;;;;10.50;100.00;96030.19;1036066;28;20568;-73
2022/05/22 01:39:28;;;;;;;;;;;;;;;10.48;100.00;96029.63;1039680;28;20437;-73
2022/05/22 01:39:59;;;;;;;;;;;;;;;10.50;100.00;96032.81;1038784;28;19917;-73
2022/05/22 01:40:29;;;;;;;;;;;;;;;10.51;100.00;96023.09;1031112;28;19922;-73
2022/05/22 01:40:59;;;;;;;;;;;;;;;10.49;100.00;96019.94;1033769;28;19945;-73
2022/05/22 01:41:32;;;;;;;;;;;;;;;10.49;100.00;96020.72;1027270;28;19914;-73
2022/05/22 01:42:02;;;;;;;;;;;;;;;10.46;100.00;96025.69;1030310;28;19930;-73
2022/05/22 01:42:33;;;;;;;;;;;;;;;10.43;100.00;96032.25;1034957;28;19917;-73
2022/05/22 01:43:03;;;;;;;;;;;;;;;10.41;100.00;96021.22;1033092;28;19914;-73
2022/05/22 01:43:33;;;;;;;;;;;;;;;10.39;100.00;96028.53;1034841;28;20013;-74
2022/05/22 01:44:04;;;;;;;;;;;;;;;10.37;100.00;96025.38;1031414;28;19925;-73
2022/05/22 01:44:34;;;;;;;;;;;;;;;10.35;100.00;96024.84;1027194;28;20017;-74
2022/05/22 01:45:05;;;;;;;;;;;;;;;10.33;100.00;96027.72;1027139;28;19926;-74
2022/05/22 01:45:35;;;;;;;;;;;;;;;10.31;100.00;96026.41;1031238;28;19922;-73
2022/05/22 01:46:05;;;;;;;;;;;;;;;10.30;100.00;96025.63;1025949;28;19969;-73
2022/05/22 01:46:36;;;;;;;;;;;;;;;10.29;100.00;96024.00;1030848;28;19921;-73
2022/05/22 01:47:06;;;;;;;;;;;;;;;10.28;100.00;96021.66;1031392;28;20312;-74
2022/05/22 01:47:36;;;;;;;;;;;;;;;10.28;100.00;96021.66;1027126;28;19914;-73
2022/05/22 01:48:07;;;;;;;;;;;;;;;10.26;100.00;96024.53;1034062;28;19925;-73
2022/05/22 01:48:37;;;;;;;;;;;;;;;10.23;100.00;96021.59;1031155;28;20719;-73
2022/05/22 01:49:08;;;;;;;;;;;;;;;10.20;100.00;96022.13;1034259;28;19917;-74
2022/05/22 01:49:38;;;;;;;;;;;;;;;10.21;100.00;96029.72;1034807;28;20327;-74
2022/05/22 01:50:08;;;;;;;;;;;;;;;10.22;100.00;96025.25;1035468;28;19924;-74
2022/05/22 01:50:39;;;;;;;;;;;;;;;10.25;100.00;96028.16;1036884;28;19928;-73
2022/05/22 01:51:10;;;;;;;;;;;;;;;10.23;100.00;96026.81;1034097;28;19920;-73
2022/05/22 01:51:40;;;;;;;;;;;;;;;10.21;100.00;96024.47;1031427;28;20120;-72
2022/05/22 01:52:11;;;;;;;;;;;;;;;10.20;100.00;96019.50;1030448;28;20429;-72
2022/05/22 01:52:41;;;;;;;;;;;;;;;10.20;100.00;96027.34;1035449;28;19917;-73
2022/05/22 01:53:11;;;;;;;;;;;;;;;10.18;100.00;96024.97;1030997;28;19909;-73
2022/05/22 01:53:42;;;;;;;;;;;;;;;10.17;100.00;96027.88;1031287;28;19957;-73
2022/05/22 01:54:13;;;;;;;;;;;;;;;10.17;100.00;96022.63;1035617;28;20284;-72
2022/05/22 01:54:44;;;;;;;;;;;;;;;10.17;100.00;96035.72;1031916;28;20347;-74
2022/05/22 01:55:14;;;;;;;;;;;;;;;10.16;100.00;96029.69;1035408;28;20350;-73
2022/05/22 01:55:44;;;;;;;;;;;;;;;10.15;100.00;96023.63;1034590;28;19913;-72
2022/05/22 01:56:15;;;;;;;;;;;;;;;10.15;100.00;96026.25;1030874;28;19920;-74
2022/05/22 01:56:45;;;;;;;;;;;;;;;10.15;100.00;96031.50;1031862;28;19917;-73
2022/05/22 01:57:15;;;;;;;;;;;;;;;10.21;100.00;96031.56;1031412;28;19968;-73
2022/05/22 01:57:46;;;;;;;;;;;;;;;10.26;100.00;96026.34;1031420;28;20388;-73
2022/05/22 01:58:16;;;;;;;;;;;;;;;10.28;100.00;96027.69;1027372;28;19914;-74
2022/05/22 01:58:46;;;;;;;;;;;;;;;10.33;100.00;96026.94;1038224;28;19909;-73
2022/05/22 01:59:17;;;;;;;;;;;;;;;10.36;100.00;96027.22;1034786;28;19905;-73
2022/05/22 01:59:47;;;;;;;;;;;;;;;10.40;100.00;96027.50;1031433;28;19909;-73
2022/05/22 02:00:18;;;;;;;;;;;;;;;10.41;100.00;96028.28;1038907;28;20275;-73
2022/05/22 02:00:48;;;;;;;;;;;;;;;10.40;100.00;96021.47;1035453;28;19917;-72
2022/05/22 02:01:18;;;;;;;;;;;;;;;10.42;100.00;96022.00;1035328;28;19913;-73
2022/05/22 02:01:49;;;;;;;;;;;;;;;10.40;100.00;96019.63;1039421;28;20367;-73
2022/05/22 02:02:19;;;;;;;;;;;;;;;10.39;100.00;96018.03;1035761;28;19914;-73
2022/05/22 02:02:49;;;;;;;;;;;;;;;10.40;100.00;96024.88;1031452;28;19921;-73
2022/05/22 02:03:20;;;;;;;;;;;;;;;10.39;100.00;96025.91;1025468;28;19957;-73
2022/05/22 02:03:54;;;;;;;;;;;;;;;10.36;100.00;96021.16;1019879;29;20293;-73
2022/05/22 02:04:24;;;;;;;;;;;;;;;10.34;100.00;96024.06;1024566;28;19949;-73
2022/05/22 02:04:54;;;;;;;;;;;;;;;10.31;100.00;96021.94;1033121;28;19910;-73
2022/05/22 02:05:25;;;;;;;;;;;;;;;10.31;100.00;96029.03;1031914;28;19913;-73
2022/05/22 02:05:55;;;;;;;;;;;;;;;10.28;100.00;96021.66;1035105;28;19937;-73
2022/05/22 02:06:25;;;;;;;;;;;;;;;10.26;100.00;96021.09;1031473;28;19906;-74
2022/05/22 02:08:34;;;;;;;;;;;;;;;10.20;100.00;96027.34;1035995;28;20402;-73
2022/05/22 02:09:04;;;;;;;;;;;;;;;10.18;100.00;96024.19;1038878;28;19914;-73
2022/05/22 02:09:34;;;;;;;;;;;;;;;10.16;100.00;96021.84;1029081;28;19926;-72
2022/05/22 02:10:05;;;;;;;;;;;;;;;10.15;100.00;96026.25;1031266;28;19921;-73
2022/05/22 02:10:38;;;;;;;;;;;;;;;10.14;100.00;96024.69;1027659;28;19922;-74
2022/05/22 02:11:09;;;;;;;;;;;;;;;10.13;100.00;96015.25;1030353;28;19918;-73
2022/05/22 02:11:39;;;;;;;;;;;;;;;10.12;100.00;96025.97;1030029;28;19918;-73
2022/05/22 02:12:09;;;;;;;;;;;;;;;10.11;100.00;96019.94;1030493;28;19917;-73
2022/05/22 02:12:40;;;;;;;;;;;;;;;10.11;100.00;96019.94;1031602;28;19921;-73
2022/05/22 02:13:10;;;;;;;;;;;;;;;10.11;100.00;96025.19;1031707;28;19960;-73
2022/05/22 02:13:48;;;;;;;;;;;;;;;10.13;100.00;96022.34;1031540;28;19918;-73
2022/05/22 02:14:19;;;;;;;;;;;;;;;10.14;100.00;96022.06;1037365;28;19925;-73
2022/05/22 02:14:50;;;;;;;;;;;;;;;10.15;100.00;96026.25;1032616;28;19925;-74
2022/05/22 02:15:20;;;;;;;;;;;;;;;10.15;100.00;96023.63;1034703;28;19918;-73
2022/05/22 02:15:50;;;;;;;;;;;;;;;10.17;100.00;96018.16;1034946;28;20008;-73
2022/05/22 02:16:21;;;;;;;;;;;;;;;10.18;100.00;96021.56;1033576;28;19917;-74
2022/05/22 02:16:51;;;;;;;;;;;;;;;10.18;100.00;96024.97;1033392;28;19918;-73
2022/05/22 02:17:21;;;;;;;;;;;;;;;10.18;100.00;96014.47;1027793;28;20471;-74
2022/05/22 02:17:52;;;;;;;;;;;;;;;10.17;100.00;96018.16;1027262;28;19922;-74
2022/05/22 02:18:22;;;;;;;;;;;;;;;10.19;100.00;96010.03;1026360;28;20372;-73
2022/05/22 02:18:52;;;;;;;;;;;;;;;10.19;100.00;96005.56;1031047;28;19918;-74
2022/05/22 02:19:22;;;;;;;;;;;;;;;10.19;100.00;96007.41;1039827;28;19939;-73
2022/05/22 02:19:53;;;;;;;;;;;;;;;10.18;100.00;96006.63;1039059;28;20257;-74
2022/05/22 02:20:23;;;;;;;;;;;;;;;10.21;100.00;96006.13;1031931;28;20001;-74
2022/05/22 02:20:53;;;;;;;;;;;;;;;10.24;100.00;96002.19;1034805;28;20010;-73
2022/05/22 02:21:24;;;;;;;;;;;;;;;10.25;100.00;96003.78;1040031;28;20010;-73
2022/05/22 02:21:55;;;;;;;;;;;;;;;10.25;100.00;95999.31;1032860;28;19917;-73
2022/05/22 02:22:25;;;;;;;;;;;;;;;10.27;100.00;95996.47;1031688;28;19968;-74
2022/05/22 02:22:56;;;;;;;;;;;;;;;10.28;100.00;96000.69;1031433;28;20359;-73
2022/05/22 02:23:26;;;;;;;;;;;;;;;10.27;100.00;96002.50;1027758;28;19921;-74
2022/05/22 02:23:56;;;;;;;;;;;;;;;10.27;100.00;95996.47;1031220;28;19922;-73
2022/05/22 02:24:27;;;;;;;;;;;;;;;10.27;100.00;95996.47;1027505;28;19934;-73
2022/05/22 02:24:57;;;;;;;;;;;;;;;10.26;100.00;95994.88;1027263;28;19929;-73
2022/05/22 02:25:31;;;;;;;;;;;;;;;10.27;100.00;95991.25;1027739;28;19926;-75
2022/05/22 02:26:01;;;;;;;;;;;;;;;10.28;100.00;95987.56;1027643;28;19921;-73
2022/05/22 02:26:32;;;;;;;;;;;;;;;10.26;100.00;95997.50;1023761;28;20609;-73
2022/05/22 02:27:06;;;;;;;;;;;;;;;10.24;100.00;95991.72;1025782;28;19934;-73
2022/05/22 02:27:36;;;;;;;;;;;;;;;10.25;100.00;95993.28;1020621;29;19982;-74
2022/05/22 02:28:06;;;;;;;;;;;;;;;10.22;100.00;95991.94;1028046;28;20466;-74
2022/05/22 02:28:38;;;;;;;;;;;;;;;10.19;100.00;95994.28;1031550;28;19913;-73
2022/05/22 02:29:08;;;;;;;;;;;;;;;10.17;100.00;95991.16;1033459;28;19917;-72
2022/05/22 02:29:39;;;;;;;;;;;;;;;10.13;100.00;95990.88;1031278;28;20441;-73
2022/05/22 02:30:10;;;;;;;;;;;;;;;10.10;100.00;95996.63;1039222;28;20382;-73
2022/05/22 02:30:42;;;;;;;;;;;;;;;10.07;100.00;95991.88;1039602;28;19920;-74
2022/05/22 02:31:13;;;;;;;;;;;;;;;10.06;100.00;95996.31;1036428;28;19918;-73
2022/05/22 02:31:43;;;;;;;;;;;;;;;10.04;100.00;95995.78;1040250;28;19928;-74
2022/05/22 02:32:13;;;;;;;;;;;;;;;10.01;100.00;95998.13;1044263;28;20380;-74
2022/05/22 02:32:43;;;;;;;;;;;;;;;9.99;100.00;95994.94;1044604;28;19917;-73
2022/05/22 02:33:14;;;;;;;;;;;;;;;9.97;100.00;95997.06;1035447;28;19909;-74
2022/05/22 02:33:44;;;;;;;;;;;;;;;9.95;100.00;95999.91;1027772;28;19918;-73
2022/05/22 02:34:14;;;;;;;;;;;;;;;9.92;100.00;95997.78;1027325;28;19922;-74
2022/05/22 02:34:45;;;;;;;;;;;;;;;9.91;100.00;96001.47;1027446;28;19922;-73
2022/05/22 02:35:15;;;;;;;;;;;;;;;9.86;100.00;95991.75;1031619;28;19961;-73
2022/05/22 02:35:50;;;;;;;;;;;;;;;9.85;100.00;95998.00;1031503;28;19914;-74
2022/05/22 02:36:21;;;;;;;;;;;;;;;9.83;100.00;95996.69;1025653;28;19973;-74
2022/05/22 02:36:51;;;;;;;;;;;;;;;9.82;100.00;95992.47;1027576;28;20372;-72
2022/05/22 02:37:21;;;;;;;;;;;;;;;9.79;100.00;95996.41;1032104;28;19914;-73
2022/05/22 02:37:52;;;;;;;;;;;;;;;9.80;100.00;95992.72;1036101;28;19922;-73
2022/05/22 02:38:22;;;;;;;;;;;;;;;9.82;100.00;95992.47;1033420;28;19917;-73
2022/05/22 02:38:53;;;;;;;;;;;;;;;9.83;100.00;95994.06;1038848;28;19925;-73
2022/05/22 02:39:23;;;;;;;;;;;;;;;9.82;100.00;95990.63;1033294;28;20315;-73
2022/05/22 02:39:54;;;;;;;;;;;;;;;9.80;100.00;95991.94;1030726;28;19922;-73
2022/05/22 02:40:25;;;;;;;;;;;;;;;9.78;100.00;95991.41;1031595;28;19917;-74
2022/05/22 02:40:55;;;;;;;;;;;;;;;9.77;100.00;95987.22;1023386;28;19969;-73
2022/05/22 02:41:25;;;;;;;;;;;;;;;9.75;100.00;95986.66;1027415;28;20388;-74
2022/05/22 02:42:05;;;;;;;;;;;;;;;9.75;100.00;95990.06;1026808;28;19922;-73
2022/05/22 02:42:41;;;;;;;;;;;;;;;9.72;100.00;95989.78;1029076;28;20000;-74